INFORMACIÓN METAR y TAF
METAR FOR LIMC
ADDS - METARS form results

(0904 UTC 25 August 2019)
Data provider http://aviationweather.gov/metar/data/
 
METAR text: LIMC 250850Z 05003KT 330V140 CAVOK 27/18 Q1019 NOSIG
Conditions at: LIMC (MILANO/MALPENSA , IT) observed 0850 UTC 25 August 2019
Temperature: 27.0°C (81°F)
Dewpoint: 18.0°C (64°F) [RH = 58%]
Pressure (altimeter): 30.09 inches Hg (1019.0 mb)
Winds: from the NE (50 degrees) at 3 MPH (3 knots; 1.5 m/s)
Visibility: 6 or more miles (10+ km)
Ceiling: ceiling and visibility are OK
Clouds: unknown
Weather: no significant weather observed at this time

METAR text: LIMC 250820Z 02003KT 320V090 CAVOK 25/18 Q1019 NOSIG
Conditions at: LIMC (MILANO/MALPENSA , IT) observed 0820 UTC 25 August 2019
Temperature: 25.0°C (77°F)
Dewpoint: 18.0°C (64°F) [RH = 65%]
Pressure (altimeter): 30.09 inches Hg (1019.0 mb)
Winds: from the NNE (20 degrees) at 3 MPH (3 knots; 1.5 m/s)
Visibility: 6 or more miles (10+ km)
Ceiling: ceiling and visibility are OK
Clouds: unknown
Weather: no significant weather observed at this time

Forecast for: LIMC (MILANO/MALPENSA , IT)
Text: TAF LIMC 250500Z 2506/2612 VRB05KT 9999 SCT060
Forecast period: 0600 UTC 25 August 2019 to 1200 UTC 26 August 2019
Forecast type: FROM: standard forecast or significant change
Winds: variable direction winds at 6 MPH (5 knots; 2.6 m/s)
Visibility: 6 or more miles 10+ km)
Ceiling: at least 12,000 feet AGL
Clouds: scattered clouds at 6000 feet AGL
Weather: no significant weather forecast for this period

 MAPA DE AEROPUERTO

 INFORMACIÓN DE PISTA
Pista 17L Longitud 12861 ft Ancho 197 ft
Elevación 745 ft Umbral desplazado 3094 ft Rumbo de pista 170
Pista 35R Longitud 12861 ft Ancho 197 ft
Elevación 691 ft Umbral desplazado 0 ft Rumbo de pista 350
Pista 17R Longitud 12861 ft Ancho 197 ft
Elevación 764 ft Umbral desplazado 0 ft Rumbo de pista 170
Pista 35L Longitud 12861 ft Ancho 197 ft
Elevación 696 ft Umbral desplazado 1329 ft Rumbo de pista 350

 FRECUANCIAS DEL AEROPUERTO
Tipo APP Nombre MILANO APP Frecuencia 132.7 MHZ
Tipo ATIS Nombre ATIS Frecuencia 120.025 MHZ
Tipo CLD Nombre CLNC DEL Frecuencia 120.9 MHZ
Tipo DEP Nombre MILANO DEP Frecuencia 126.75 MHZ
Tipo GND Nombre GND Frecuencia 121.9 MHZ
Tipo TWR Nombre TWR Frecuencia 119 MHZ

 RADIO AYUDAS DEL AEROPUERTO
Tipo VOR-DME Nombre Malpensa Frecuencia 111200 KHZ
Tipo NDB Nombre Malpensa Frecuencia 364 KHZ



Powered by Virtual Airlines Manager [v2.6.2]